^^
Saratoga-Weather Station Historical Data
Daily Summary for July 26, 2020 Units:  Both    English   Metric
Daily Weekly Monthly Yearly Custom
  High: Low: Average:
Temperature: 77.4 °F /  25.2 °C 61.9 °F /  16.6 °C 68.7 °F /  20.4 °C
Dew Point: 64 °F /  17.8 °C 53.4 °F /  11.9 °C 58.1 °F /  14.5 °C
Humidity: 92% 44% 70%
Wind Speed: 12.1mph /  19.5km/h - 2.8mph /  4.5km/h
Wind Gust: 18mph /  29km/h - -
Wind- - West
Pressure: 30 in /  1015.6 hPa 29.8 in /  1007.5 hPa -
Precipitation: 0.09 in /  2.3 mm    
Historical Graphs
 
 
Tabular Data for July 26, 2020
Time Temperature Dew Point Pressure Wind Wind Speed Wind Gust Humidity Rainfall Rate (Hourly) solar
00:03 70.3 °F /  21.3 °C 58.8 °F /  14.9 °C 29.8in /  1008.5hPa West 4mph /  6.4km/h 6mph /  9.7km/h 67% 0in /  0.0mm 0 W/m2
00:08 70.3 °F /  21.3 °C 58.8 °F /  14.9 °C 29.8in /  1008.8hPa NW 2.9mph /  4.7km/h 8mph /  12.9km/h 67% 0in /  0.0mm 0 W/m2
00:13 70.2 °F /  21.2 °C 58.6 °F /  14.8 °C 29.8in /  1008.5hPa WSW 4.9mph /  7.9km/h 9mph /  14.5km/h 67% 0in /  0.0mm 0 W/m2
00:18 70.2 °F /  21.2 °C 59.2 °F /  15.1 °C 29.8in /  1008.5hPa WNW 6.9mph /  11.1km/h 7mph /  11.3km/h 68% 0in /  0.0mm 0 W/m2
00:23 70 °F /  21.1 °C 58.5 °F /  14.7 °C 29.8in /  1008.5hPa West 2.9mph /  4.7km/h 12mph /  19.3km/h 67% 0in /  0.0mm 0 W/m2
00:28 70 °F /  21.1 °C 59 °F /  15 °C 29.8in /  1008.5hPa WSW 4mph /  6.4km/h 4mph /  6.4km/h 68% 0in /  0.0mm 0 W/m2
00:33 70 °F /  21.1 °C 59 °F /  15 °C 29.8in /  1008.5hPa NW 8.1mph /  13km/h 8mph /  12.9km/h 68% 0in /  0.0mm 0 W/m2
00:38 69.8 °F /  21 °C 58.8 °F /  14.9 °C 29.8in /  1008.8hPa WNW 2.9mph /  4.7km/h 7mph /  11.3km/h 68% 0in /  0.0mm 0 W/m2
00:43 69.6 °F /  20.9 °C 59 °F /  15 °C 29.8in /  1008.8hPa WNW 4.9mph /  7.9km/h 11mph /  17.7km/h 69% 0in /  0.0mm 0 W/m2
00:48 69.3 °F /  20.7 °C 59 °F /  15 °C 29.8in /  1008.8hPa West 6mph /  9.7km/h 6mph /  9.7km/h 70% 0in /  0.0mm 0 W/m2
00:53 69.1 °F /  20.6 °C 58.8 °F /  14.9 °C 29.8in /  1008.8hPa West 4mph /  6.4km/h 7mph /  11.3km/h 70% 0in /  0.0mm 0 W/m2
00:58 68.7 °F /  20.4 °C 59 °F /  15 °C 29.8in /  1008.8hPa West 2mph /  3.2km/h 8mph /  12.9km/h 71% 0in /  0.0mm 0 W/m2
01:03 68.4 °F /  20.2 °C 59.4 °F /  15.2 °C 29.8in /  1008.8hPa West 2mph /  3.2km/h 5mph /  8km/h 73% 0in /  0.0mm 0 W/m2
01:08 67.6 °F /  19.8 °C 59.4 °F /  15.2 °C 29.8in /  1008.8hPa NW 2mph /  3.2km/h 8mph /  12.9km/h 75% 0in /  0.0mm 0 W/m2
01:13 67.3 °F /  19.6 °C 59.5 °F /  15.3 °C 29.8in /  1008.8hPa WNW 2mph /  3.2km/h 3mph /  4.8km/h 76% 0in /  0.0mm 0 W/m2
01:18 66.9 °F /  19.4 °C 59.5 °F /  15.3 °C 29.8in /  1008.8hPa NW 0.9mph /  1.4km/h 3mph /  4.8km/h 77% 0in /  0.0mm 0 W/m2
01:23 66.7 °F /  19.3 °C 59.7 °F /  15.4 °C 29.8in /  1008.8hPa Calm     78% 0in /  0.0mm 0 W/m2
01:28 66.6 °F /  19.2 °C 59.9 °F /  15.5 °C 29.8in /  1008.5hPa Calm   1mph /  1.6km/h 79% 0in /  0.0mm 0 W/m2
01:34 66.4 °F /  19.1 °C 59.7 °F /  15.4 °C 29.8in /  1008.5hPa SSE 0.9mph /  1.4km/h 1mph /  1.6km/h 79% 0in /  0.0mm 0 W/m2
01:39 66.4 °F /  19.1 °C 59.7 °F /  15.4 °C 29.8in /  1008.5hPa NNW 0.9mph /  1.4km/h 2mph /  3.2km/h 79% 0in /  0.0mm 0 W/m2
01:44 66.4 °F /  19.1 °C 60.4 °F /  15.8 °C 29.8in /  1008.5hPa Calm     81% 0in /  0.0mm 0 W/m2
01:49 66 °F /  18.9 °C 60.1 °F /  15.6 °C 29.8in /  1008.5hPa Calm   2mph /  3.2km/h 81% 0in /  0.0mm 0 W/m2
01:54 65.8 °F /  18.8 °C 60.6 °F /  15.9 °C 29.8in /  1008.5hPa WNW 2mph /  3.2km/h 2mph /  3.2km/h 83% 0.01in /  0.2mm 0 W/m2
01:59 65.7 °F /  18.7 °C 60.1 °F /  15.6 °C 29.8in /  1008.8hPa West 0.9mph /  1.4km/h 4mph /  6.4km/h 82% 0.01in /  0.2mm 0 W/m2
02:04 65.5 °F /  18.6 °C 59.9 °F /  15.5 °C 29.8in /  1008.5hPa WSW 2mph /  3.2km/h 4mph /  6.4km/h 82% 0.01in /  0.2mm 0 W/m2
02:09 65.7 °F /  18.7 °C 60.1 °F /  15.6 °C 29.8in /  1008.8hPa Calm   1mph /  1.6km/h 82% 0.01in /  0.2mm 0 W/m2
02:14 65.7 °F /  18.7 °C 60.1 °F /  15.6 °C 29.8in /  1008.8hPa NNW 6mph /  9.7km/h 6mph /  9.7km/h 82% 0.01in /  0.2mm 0 W/m2
02:19 65.7 °F /  18.7 °C 60.1 °F /  15.6 °C 29.8in /  1008.8hPa WNW 4mph /  6.4km/h 6mph /  9.7km/h 82% 0.01in /  0.2mm 0 W/m2
02:24 65.7 °F /  18.7 °C 59.7 °F /  15.4 °C 29.8in /  1008.5hPa NW 4mph /  6.4km/h 7mph /  11.3km/h 81% 0.01in /  0.2mm 0 W/m2
02:29 65.8 °F /  18.8 °C 59.9 °F /  15.5 °C 29.8in /  1008.5hPa WNW 2mph /  3.2km/h 8mph /  12.9km/h 81% 0.01in /  0.2mm 0 W/m2
02:34 65.8 °F /  18.8 °C 59.5 °F /  15.3 °C 29.8in /  1008.5hPa WNW 2mph /  3.2km/h 4mph /  6.4km/h 80% 0.01in /  0.2mm 0 W/m2
02:39 65.8 °F /  18.8 °C 59.5 °F /  15.3 °C 29.8in /  1008.5hPa NNW 0.9mph /  1.4km/h 2mph /  3.2km/h 80% 0.01in /  0.2mm 0 W/m2
02:44 65.8 °F /  18.8 °C 59.5 °F /  15.3 °C 29.8in /  1008.5hPa Calm   2mph /  3.2km/h 80% 0.01in /  0.2mm 0 W/m2
02:49 65.8 °F /  18.8 °C 59.5 °F /  15.3 °C 29.8in /  1008.5hPa Calm   3mph /  4.8km/h 80% 0in /  0.0mm 0 W/m2
02:54 65.8 °F /  18.8 °C 59.5 °F /  15.3 °C 29.8in /  1008.5hPa NE 2mph /  3.2km/h 2mph /  3.2km/h 80% 0in /  0.0mm 0 W/m2
02:59 65.8 °F /  18.8 °C 59.5 °F /  15.3 °C 29.8in /  1008.5hPa North 0.9mph /  1.4km/h 4mph /  6.4km/h 80% 0in /  0.0mm 0 W/m2
03:04 65.7 °F /  18.7 °C 59.7 °F /  15.4 °C 29.8in /  1008.5hPa North 0.9mph /  1.4km/h 2mph /  3.2km/h 81% 0in /  0.0mm 0 W/m2
03:10 65.7 °F /  18.7 °C 59.7 °F /  15.4 °C 29.8in /  1008.1hPa NE 0.9mph /  1.4km/h 4mph /  6.4km/h 81% 0in /  0.0mm 0 W/m2
03:15 65.7 °F /  18.7 °C 59.7 °F /  15.4 °C 29.8in /  1007.8hPa Calm     81% 0in /  0.0mm 0 W/m2
03:20 65.5 °F /  18.6 °C 59.9 °F /  15.5 °C 29.8in /  1007.5hPa Calm     82% 0in /  0.0mm 0 W/m2
03:25 65.1 °F /  18.4 °C 59.9 °F /  15.5 °C 29.8in /  1007.8hPa Calm     83% 0in /  0.0mm 0 W/m2
03:30 64.9 °F /  18.3 °C 59.9 °F /  15.5 °C 29.8in /  1007.8hPa Calm   1mph /  1.6km/h 84% 0in /  0.0mm 0 W/m2
03:35 64.8 °F /  18.2 °C 60.1 °F /  15.6 °C 29.8in /  1007.8hPa Calm   1mph /  1.6km/h 85% 0in /  0.0mm 0 W/m2
03:40 64.6 °F /  18.1 °C 59.9 °F /  15.5 °C 29.8in /  1008.1hPa NNW 0.9mph /  1.4km/h 2mph /  3.2km/h 85% 0in /  0.0mm 0 W/m2
03:45 64.6 °F /  18.1 °C 59.7 °F /  15.4 °C 29.8in /  1008.1hPa WNW 2mph /  3.2km/h 5mph /  8km/h 84% 0in /  0.0mm 0 W/m2
03:50 64.8 °F /  18.2 °C 59.5 °F /  15.3 °C 29.8in /  1008.1hPa Calm   2mph /  3.2km/h 83% 0in /  0.0mm 0 W/m2
03:55 64.9 °F /  18.3 °C 59.7 °F /  15.4 °C 29.8in /  1008.5hPa West 2mph /  3.2km/h 4mph /  6.4km/h 83% 0in /  0.0mm 0 W/m2
04:00 65.1 °F /  18.4 °C 59.9 °F /  15.5 °C 29.8in /  1008.5hPa WNW 2mph /  3.2km/h 3mph /  4.8km/h 83% 0in /  0.0mm 0 W/m2
04:05 65.1 °F /  18.4 °C 59.5 °F /  15.3 °C 29.8in /  1008.5hPa Calm   4mph /  6.4km/h 82% 0in /  0.0mm 0 W/m2
04:10 65.1 °F /  18.4 °C 59.5 °F /  15.3 °C 29.8in /  1008.1hPa NNW 0.9mph /  1.4km/h 2mph /  3.2km/h 82% 0in /  0.0mm 0 W/m2
04:15 65.3 °F /  18.5 °C 59.7 °F /  15.4 °C 29.8in /  1008.5hPa North 2mph /  3.2km/h 3mph /  4.8km/h 82% 0in /  0.0mm 0 W/m2
04:20 65.3 °F /  18.5 °C 59.7 °F /  15.4 °C 29.8in /  1008.5hPa NNE 2mph /  3.2km/h 3mph /  4.8km/h 82% 0in /  0.0mm 0 W/m2
04:25 65.5 °F /  18.6 °C 59.5 °F /  15.3 °C 29.8in /  1008.5hPa NW 0.9mph /  1.4km/h 4mph /  6.4km/h 81% 0in /  0.0mm 0 W/m2
04:30 65.5 °F /  18.6 °C 59.5 °F /  15.3 °C 29.8in /  1008.5hPa NE 0.9mph /  1.4km/h 2mph /  3.2km/h 81% 0in /  0.0mm 0 W/m2
04:35 65.5 °F /  18.6 °C 59.5 °F /  15.3 °C 29.8in /  1008.5hPa North 0.9mph /  1.4km/h 9mph /  14.5km/h 81% 0in /  0.0mm 0 W/m2
04:41 65.5 °F /  18.6 °C 59.5 °F /  15.3 °C 29.8in /  1008.8hPa West 2.9mph /  4.7km/h 4mph /  6.4km/h 81% 0in /  0.0mm 0 W/m2
04:46 65.5 °F /  18.6 °C 59.5 °F /  15.3 °C 29.8in /  1008.8hPa NNW 4mph /  6.4km/h 9mph /  14.5km/h 81% 0in /  0.0mm 0 W/m2
04:51 65.5 °F /  18.6 °C 59.5 °F /  15.3 °C 29.8in /  1008.8hPa NW 2mph /  3.2km/h 4mph /  6.4km/h 81% 0in /  0.0mm 0 W/m2
04:56 65.5 °F /  18.6 °C 59.5 °F /  15.3 °C 29.8in /  1008.8hPa NW 2mph /  3.2km/h 8mph /  12.9km/h 81% 0in /  0.0mm 0 W/m2
05:01 65.5 °F /  18.6 °C 59.5 °F /  15.3 °C 29.8in /  1008.8hPa West 0.9mph /  1.4km/h 5mph /  8km/h 81% 0in /  0.0mm 0 W/m2
05:06 65.5 °F /  18.6 °C 59.5 °F /  15.3 °C 29.8in /  1008.8hPa NW 0.9mph /  1.4km/h 4mph /  6.4km/h 81% 0in /  0.0mm 0 W/m2
05:11 65.5 °F /  18.6 °C 59.5 °F /  15.3 °C 29.8in /  1008.8hPa Calm   4mph /  6.4km/h 81% 0in /  0.0mm 0 W/m2
05:16 65.5 °F /  18.6 °C 59.5 °F /  15.3 °C 29.8in /  1008.5hPa ENE 2mph /  3.2km/h 2mph /  3.2km/h 81% 0in /  0.0mm 0 W/m2
05:21 65.5 °F /  18.6 °C 59.9 °F /  15.5 °C 29.8in /  1008.5hPa West 0.9mph /  1.4km/h 4mph /  6.4km/h 82% 0in /  0.0mm 0 W/m2
05:26 65.5 °F /  18.6 °C 59.9 °F /  15.5 °C 29.8in /  1008.5hPa Calm   2mph /  3.2km/h 82% 0in /  0.0mm 0 W/m2
05:31 65.3 °F /  18.5 °C 59.7 °F /  15.4 °C 29.8in /  1008.5hPa WSW 0.9mph /  1.4km/h 3mph /  4.8km/h 82% 0in /  0.0mm 0 W/m2
05:36 65.3 °F /  18.5 °C 59.7 °F /  15.4 °C 29.8in /  1008.5hPa WNW 0.9mph /  1.4km/h 2mph /  3.2km/h 82% 0in /  0.0mm 0 W/m2
05:41 65.1 °F /  18.4 °C 59.5 °F /  15.3 °C 29.8in /  1008.5hPa NE 0.9mph /  1.4km/h 2mph /  3.2km/h 82% 0in /  0.0mm 0 W/m2
05:47 65.1 °F /  18.4 °C 59.5 °F /  15.3 °C 29.8in /  1008.5hPa Calm   2mph /  3.2km/h 82% 0in /  0.0mm 0 W/m2
05:52 65.1 °F /  18.4 °C 59.9 °F /  15.5 °C 29.8in /  1008.5hPa WNW 0.9mph /  1.4km/h 2mph /  3.2km/h 83% 0in /  0.0mm 0 W/m2
05:57 65.1 °F /  18.4 °C 59.9 °F /  15.5 °C 29.8in /  1008.5hPa WNW 2mph /  3.2km/h 4mph /  6.4km/h 83% 0in /  0.0mm 0 W/m2
06:02 65.1 °F /  18.4 °C 59.9 °F /  15.5 °C 29.8in /  1008.5hPa WNW 2mph /  3.2km/h 5mph /  8km/h 83% 0in /  0.0mm 0 W/m2
06:07 64.9 °F /  18.3 °C 59.7 °F /  15.4 °C 29.8in /  1008.5hPa West 2.9mph /  4.7km/h 4mph /  6.4km/h 83% 0in /  0.0mm 0 W/m2
06:12 64.9 °F /  18.3 °C 59.7 °F /  15.4 °C 29.8in /  1008.5hPa Calm   3mph /  4.8km/h 83% 0in /  0.0mm 0 W/m2
06:17 64.8 °F /  18.2 °C 59.9 °F /  15.5 °C 29.8in /  1008.5hPa Calm   1mph /  1.6km/h 84% 0in /  0.0mm 0 W/m2
06:22 64.6 °F /  18.1 °C 59.7 °F /  15.4 °C 29.8in /  1008.5hPa WNW 0.9mph /  1.4km/h 7mph /  11.3km/h 84% 0in /  0.0mm 5 W/m2
06:27 64.6 °F /  18.1 °C 59.7 °F /  15.4 °C 29.8in /  1008.8hPa NW 2.9mph /  4.7km/h 3mph /  4.8km/h 84% 0in /  0.0mm 7 W/m2
06:32 64.6 °F /  18.1 °C 59.7 °F /  15.4 °C 29.8in /  1008.8hPa West 7mph /  11.3km/h 7mph /  11.3km/h 84% 0in /  0.0mm 9 W/m2
06:37 64.6 °F /  18.1 °C 59.7 °F /  15.4 °C 29.8in /  1008.8hPa NW 0.9mph /  1.4km/h 3mph /  4.8km/h 84% 0in /  0.0mm 14 W/m2
06:42 64.6 °F /  18.1 °C 59.7 °F /  15.4 °C 29.8in /  1008.8hPa West 7mph /  11.3km/h 7mph /  11.3km/h 84% 0in /  0.0mm 26 W/m2
06:47 64.6 °F /  18.1 °C 59.7 °F /  15.4 °C 29.8in /  1008.8hPa NW 2mph /  3.2km/h 7mph /  11.3km/h 84% 0in /  0.0mm 23 W/m2
06:52 64.6 °F /  18.1 °C 59.7 °F /  15.4 °C 29.8in /  1008.8hPa WNW 2.9mph /  4.7km/h 6mph /  9.7km/h 84% 0in /  0.0mm 25 W/m2
06:57 64.8 °F /  18.2 °C 59.9 °F /  15.5 °C 29.8in /  1009.1hPa West 6mph /  9.7km/h 9mph /  14.5km/h 84% 0in /  0.0mm 25 W/m2
07:07 64.6 °F /  18.1 °C 59.7 °F /  15.4 °C 29.8in /  1009.1hPa West 4mph /  6.4km/h 9mph /  14.5km/h 84% 0in /  0.0mm 30 W/m2
07:12 64.6 °F /  18.1 °C 59.7 °F /  15.4 °C 29.8in /  1009.1hPa NW 4mph /  6.4km/h 4mph /  6.4km/h 84% 0in /  0.0mm 42 W/m2
07:17 64.4 °F /  18 °C 59.5 °F /  15.3 °C 29.8in /  1009.1hPa NW 2mph /  3.2km/h 7mph /  11.3km/h 84% 0in /  0.0mm 30 W/m2
07:22 64.2 °F /  17.9 °C 59.5 °F /  15.3 °C 29.8in /  1009.1hPa WNW 2mph /  3.2km/h 2mph /  3.2km/h 85% 0.01in /  0.2mm 21 W/m2
07:27 64 °F /  17.8 °C 59.7 °F /  15.4 °C 29.8in /  1009.1hPa WNW 2mph /  3.2km/h 4mph /  6.4km/h 86% 0.01in /  0.2mm 35 W/m2
07:32 64 °F /  17.8 °C 59.7 °F /  15.4 °C 29.8in /  1009.1hPa Calm   3mph /  4.8km/h 86% 0.01in /  0.2mm 39 W/m2
07:37 63.9 °F /  17.7 °C 59.9 °F /  15.5 °C 29.8in /  1009.5hPa NW 2mph /  3.2km/h 6mph /  9.7km/h 87% 0.01in /  0.2mm 33 W/m2
07:42 63.9 °F /  17.7 °C 59.9 °F /  15.5 °C 29.8in /  1009.5hPa West 2mph /  3.2km/h 7mph /  11.3km/h 87% 0.01in /  0.2mm 35 W/m2
07:47 63.9 °F /  17.7 °C 60.3 °F /  15.7 °C 29.8in /  1009.5hPa WSW 4mph /  6.4km/h 7mph /  11.3km/h 88% 0.01in /  0.2mm 72 W/m2
07:52 63.9 °F /  17.7 °C 60.3 °F /  15.7 °C 29.8in /  1009.8hPa NW 2mph /  3.2km/h 7mph /  11.3km/h 88% 0.01in /  0.2mm 46 W/m2
07:57 63.9 °F /  17.7 °C 60.6 °F /  15.9 °C 29.8in /  1009.8hPa NW 2mph /  3.2km/h 2mph /  3.2km/h 89% 0.01in /  0.2mm 118 W/m2
08:02 64 °F /  17.8 °C 60.8 °F /  16 °C 29.8in /  1009.8hPa NW 2mph /  3.2km/h 7mph /  11.3km/h 89% 0.01in /  0.2mm 69 W/m2
08:07 64.2 °F /  17.9 °C 60.6 °F /  15.9 °C 29.8in /  1009.8hPa SW 2mph /  3.2km/h 2mph /  3.2km/h 88% 0.01in /  0.2mm 46 W/m2
08:13 64.2 °F /  17.9 °C 61 °F /  16.1 °C 29.8in /  1009.8hPa Calm   6mph /  9.7km/h 89% 0.01in /  0.2mm 60 W/m2
08:18 64.2 °F /  17.9 °C 60.6 °F /  15.9 °C 29.8in /  1009.8hPa WSW 2mph /  3.2km/h 3mph /  4.8km/h 88% 0.01in /  0.2mm 42 W/m2
08:23 64.4 °F /  18 °C 60.8 °F /  16 °C 29.8in /  1009.8hPa NNE 2mph /  3.2km/h 3mph /  4.8km/h 88% 0in /  0.0mm 83 W/m2
08:28 64.4 °F /  18 °C 60.8 °F /  16 °C 29.8in /  1009.8hPa NNW 2mph /  3.2km/h 3mph /  4.8km/h 88% 0in /  0.0mm 97 W/m2
08:33 64.4 °F /  18 °C 60.8 °F /  16 °C 29.8in /  1010.2hPa Calm   4mph /  6.4km/h 88% 0in /  0.0mm 90 W/m2
08:38 64.2 °F /  17.9 °C 60.6 °F /  15.9 °C 29.8in /  1010.2hPa WSW 2.9mph /  4.7km/h 5mph /  8km/h 88% 0in /  0.0mm 69 W/m2
08:43 64.2 °F /  17.9 °C 61 °F /  16.1 °C 29.8in /  1010.2hPa NE 0.9mph /  1.4km/h 4mph /  6.4km/h 89% 0in /  0.0mm 62 W/m2
08:48 64.2 °F /  17.9 °C 61 °F /  16.1 °C 29.8in /  1010.2hPa North 2.9mph /  4.7km/h 3mph /  4.8km/h 89% 0in /  0.0mm 120 W/m2
08:53 64.4 °F /  18 °C 61.2 °F /  16.2 °C 29.8in /  1010.2hPa South 0.9mph /  1.4km/h 2mph /  3.2km/h 89% 0in /  0.0mm 98 W/m2
08:58 64.6 °F /  18.1 °C 61.3 °F /  16.3 °C 29.8in /  1010.2hPa WNW 4mph /  6.4km/h 7mph /  11.3km/h 89% 0in /  0.0mm 102 W/m2
09:03 64.6 °F /  18.1 °C 61.3 °F /  16.3 °C 29.8in /  1010.2hPa NE 0.9mph /  1.4km/h 2mph /  3.2km/h 89% 0in /  0.0mm 67 W/m2
09:08 64.8 °F /  18.2 °C 61.5 °F /  16.4 °C 29.8in /  1010.2hPa NW 2.9mph /  4.7km/h 7mph /  11.3km/h 89% 0in /  0.0mm 174 W/m2
09:13 64.8 °F /  18.2 °C 61.5 °F /  16.4 °C 29.8in /  1010.5hPa West 2.9mph /  4.7km/h 3mph /  4.8km/h 89% 0in /  0.0mm 139 W/m2
09:18 64.9 °F /  18.3 °C 61.7 °F /  16.5 °C 29.8in /  1010.5hPa WSW 2mph /  3.2km/h 8mph /  12.9km/h 89% 0in /  0.0mm 153 W/m2
09:23 65.1 °F /  18.4 °C 61.9 °F /  16.6 °C 29.8in /  1010.5hPa WNW 2.9mph /  4.7km/h 4mph /  6.4km/h 89% 0in /  0.0mm 135 W/m2
09:28 65.5 °F /  18.6 °C 61.9 °F /  16.6 °C 29.8in /  1010.5hPa West 8.1mph /  13km/h 8mph /  12.9km/h 88% 0in /  0.0mm 114 W/m2
09:33 65.5 °F /  18.6 °C 61.9 °F /  16.6 °C 29.8in /  1010.5hPa WNW 2.9mph /  4.7km/h 11mph /  17.7km/h 88% 0in /  0.0mm 304 W/m2
09:38 65.8 °F /  18.8 °C 61.9 °F /  16.6 °C 29.8in /  1010.5hPa West 2mph /  3.2km/h 2mph /  3.2km/h 87% 0in /  0.0mm 253 W/m2
09:43 66.2 °F /  19 °C 61.9 °F /  16.6 °C 29.9in /  1010.8hPa NW 4mph /  6.4km/h 11mph /  17.7km/h 86% 0in /  0.0mm 121 W/m2
09:48 66 °F /  18.9 °C 61.7 °F /  16.5 °C 29.9in /  1010.8hPa NW 2mph /  3.2km/h 6mph /  9.7km/h 86% 0in /  0.0mm 146 W/m2
09:53 65.8 °F /  18.8 °C 62.2 °F /  16.8 °C 29.9in /  1010.8hPa West 2mph /  3.2km/h 8mph /  12.9km/h 88% 0in /  0.0mm 111 W/m2
09:58 65.5 °F /  18.6 °C 61.9 °F /  16.6 °C 29.9in /  1010.8hPa WNW 2.9mph /  4.7km/h 9mph /  14.5km/h 88% 0in /  0.0mm 107 W/m2
10:03 65.1 °F /  18.4 °C 61.5 °F /  16.4 °C 29.9in /  1010.8hPa West 2.9mph /  4.7km/h 12mph /  19.3km/h 88% 0in /  0.0mm 98 W/m2
10:08 65.1 °F /  18.4 °C 61.9 °F /  16.6 °C 29.9in /  1010.8hPa WNW 6mph /  9.7km/h 6mph /  9.7km/h 89% 0in /  0.0mm 186 W/m2
10:13 65.1 °F /  18.4 °C 61.9 °F /  16.6 °C 29.9in /  1010.8hPa WNW 6.9mph /  11.1km/h 10mph /  16.1km/h 89% 0in /  0.0mm 97 W/m2
10:18 64.9 °F /  18.3 °C 61.3 °F /  16.3 °C 29.9in /  1010.8hPa WNW 6.9mph /  11.1km/h 7mph /  11.3km/h 88% 0.01in /  0.2mm 149 W/m2
10:23 64.8 °F /  18.2 °C 61.5 °F /  16.4 °C 29.9in /  1011.2hPa West 2.9mph /  4.7km/h 7mph /  11.3km/h 89% 0.03in /  0.8mm 139 W/m2
10:28 64.4 °F /  18 °C 61.3 °F /  16.3 °C 29.9in /  1011.2hPa NNW 2mph /  3.2km/h 7mph /  11.3km/h 90% 0.04in /  1.0mm 97 W/m2
10:33 64.2 °F /  17.9 °C 61.2 °F /  16.2 °C 29.9in /  1011.2hPa SSW 0.9mph /  1.4km/h 4mph /  6.4km/h 90% 0.06in /  1.5mm 146 W/m2
10:38 64 °F /  17.8 °C 61 °F /  16.1 °C 29.9in /  1011.2hPa NW 2mph /  3.2km/h 7mph /  11.3km/h 90% 0.07in /  1.8mm 155 W/m2
10:43 64 °F /  17.8 °C 61.3 °F /  16.3 °C 29.9in /  1011.2hPa West 2mph /  3.2km/h 6mph /  9.7km/h 91% 0.08in /  2.0mm 183 W/m2
10:48 63.9 °F /  17.7 °C 61.2 °F /  16.2 °C 29.9in /  1011.2hPa West 4mph /  6.4km/h 10mph /  16.1km/h 91% 0.08in /  2.0mm 279 W/m2
10:53 64 °F /  17.8 °C 61.3 °F /  16.3 °C 29.9in /  1011.2hPa SSW 4mph /  6.4km/h 4mph /  6.4km/h 91% 0.08in /  2.0mm 209 W/m2
10:58 64.2 °F /  17.9 °C 61.9 °F /  16.6 °C 29.9in /  1011.2hPa WNW 0.9mph /  1.4km/h 9mph /  14.5km/h 92% 0.08in /  2.0mm 227 W/m2
11:03 64.9 °F /  18.3 °C 62.2 °F /  16.8 °C 29.9in /  1011.2hPa WNW 4mph /  6.4km/h 12mph /  19.3km/h 91% 0.08in /  2.0mm 640 W/m2
11:08 65.3 °F /  18.5 °C 62.6 °F /  17 °C 29.9in /  1011.5hPa WSW 4.9mph /  7.9km/h 9mph /  14.5km/h 91% 0.08in /  2.0mm 680 W/m2
11:13 65.8 °F /  18.8 °C 62.8 °F /  17.1 °C 29.9in /  1011.2hPa WSW 8.1mph /  13km/h 12mph /  19.3km/h 90% 0.08in /  2.0mm 726 W/m2
11:18 66.6 °F /  19.2 °C 63.1 °F /  17.3 °C 29.9in /  1011.2hPa West 4mph /  6.4km/h 9mph /  14.5km/h 89% 0.07in /  1.8mm 719 W/m2
11:23 67.1 °F /  19.5 °C 62.8 °F /  17.1 °C 29.9in /  1011.5hPa West 8.9mph /  14.3km/h 10mph /  16.1km/h 86% 0.05in /  1.3mm 782 W/m2
11:28 67.6 °F /  19.8 °C 64 °F /  17.8 °C 29.9in /  1011.5hPa NNW 6mph /  9.7km/h 7mph /  11.3km/h 88% 0.04in /  1.0mm 986 W/m2
11:33 68 °F /  20 °C 62.2 °F /  16.8 °C 29.9in /  1011.5hPa West 4mph /  6.4km/h 10mph /  16.1km/h 82% 0.02in /  0.5mm 550 W/m2
11:38 68 °F /  20 °C 61.5 °F /  16.4 °C 29.9in /  1011.9hPa WSW 8.9mph /  14.3km/h 12mph /  19.3km/h 80% 0.01in /  0.2mm 239 W/m2
11:43 67.6 °F /  19.8 °C 61.2 °F /  16.2 °C 29.9in /  1011.9hPa West 2mph /  3.2km/h 4mph /  6.4km/h 80% 0in /  0.0mm 371 W/m2
11:48 67.3 °F /  19.6 °C 60.6 °F /  15.9 °C 29.9in /  1011.9hPa NW 4mph /  6.4km/h 12mph /  19.3km/h 79% 0in /  0.0mm 237 W/m2
11:53 67.3 °F /  19.6 °C 61 °F /  16.1 °C 29.9in /  1011.9hPa SW 0.9mph /  1.4km/h 8mph /  12.9km/h 80% 0in /  0.0mm 369 W/m2
11:58 67.3 °F /  19.6 °C 61 °F /  16.1 °C 29.9in /  1011.9hPa SW 4.9mph /  7.9km/h 7mph /  11.3km/h 80% 0in /  0.0mm 178 W/m2
12:03 67.5 °F /  19.7 °C 61.2 °F /  16.2 °C 29.9in /  1011.9hPa WSW 2.9mph /  4.7km/h 3mph /  4.8km/h 80% 0in /  0.0mm 427 W/m2
12:09 67.5 °F /  19.7 °C 60.8 °F /  16 °C 29.9in /  1012.2hPa WSW 2mph /  3.2km/h 3mph /  4.8km/h 79% 0in /  0.0mm 253 W/m2
12:14 67.8 °F /  19.9 °C 61.3 °F /  16.3 °C 29.9in /  1012.2hPa WSW 2.9mph /  4.7km/h 6mph /  9.7km/h 80% 0in /  0.0mm 302 W/m2
12:24 68.5 °F /  20.3 °C 62.1 °F /  16.7 °C 29.9in /  1012.2hPa NW 2.9mph /  4.7km/h 4mph /  6.4km/h 80% 0in /  0.0mm 728 W/m2
12:29 69.1 °F /  20.6 °C 61.2 °F /  16.2 °C 29.9in /  1012.2hPa SW 2.9mph /  4.7km/h 6mph /  9.7km/h 76% 0in /  0.0mm 649 W/m2
12:34 69.3 °F /  20.7 °C 62.1 °F /  16.7 °C 29.9in /  1012.2hPa WSW 2.9mph /  4.7km/h 7mph /  11.3km/h 78% 0in /  0.0mm 575 W/m2
12:39 69.1 °F /  20.6 °C 61.5 °F /  16.4 °C 29.9in /  1012.2hPa NNW 2.9mph /  4.7km/h 5mph /  8km/h 77% 0in /  0.0mm 406 W/m2
12:44 69.4 °F /  20.8 °C 61.9 °F /  16.6 °C 29.9in /  1012.2hPa WNW 4mph /  6.4km/h 12mph /  19.3km/h 77% 0in /  0.0mm 853 W/m2
12:49 70.2 °F /  21.2 °C 62.2 °F /  16.8 °C 29.9in /  1012.2hPa NNE 0.9mph /  1.4km/h 7mph /  11.3km/h 76% 0in /  0.0mm 362 W/m2
12:54 70.3 °F /  21.3 °C 61.3 °F /  16.3 °C 29.9in /  1012.2hPa SW 2mph /  3.2km/h 9mph /  14.5km/h 73% 0in /  0.0mm 789 W/m2
12:59 70.3 °F /  21.3 °C 61.3 °F /  16.3 °C 29.9in /  1012.2hPa East 2mph /  3.2km/h 3mph /  4.8km/h 73% 0in /  0.0mm 283 W/m2
13:09 70.7 °F /  21.5 °C 60.4 °F /  15.8 °C 29.9in /  1012.5hPa NW 4.9mph /  7.9km/h 5mph /  8km/h 70% 0in /  0.0mm 427 W/m2
13:14 71.1 °F /  21.7 °C 60.4 °F /  15.8 °C 29.9in /  1012.5hPa WNW 4.9mph /  7.9km/h 11mph /  17.7km/h 69% 0in /  0.0mm 329 W/m2
13:19 70.9 °F /  21.6 °C 59.4 °F /  15.2 °C 29.9in /  1012.5hPa West 8.1mph /  13km/h 9mph /  14.5km/h 67% 0in /  0.0mm 209 W/m2
13:24 70.3 °F /  21.3 °C 58.8 °F /  14.9 °C 29.9in /  1012.5hPa West 8.9mph /  14.3km/h 9mph /  14.5km/h 67% 0in /  0.0mm 190 W/m2
13:29 70.2 °F /  21.2 °C 58.6 °F /  14.8 °C 29.9in /  1012.5hPa West 4mph /  6.4km/h 6mph /  9.7km/h 67% 0in /  0.0mm 248 W/m2
13:34 70.5 °F /  21.4 °C 59.4 °F /  15.2 °C 29.9in /  1012.5hPa West 6mph /  9.7km/h 6mph /  9.7km/h 68% 0in /  0.0mm 327 W/m2
13:39 70.9 °F /  21.6 °C 58.5 °F /  14.7 °C 29.9in /  1012.5hPa SSW 4mph /  6.4km/h 10mph /  16.1km/h 65% 0in /  0.0mm 418 W/m2
13:44 71.2 °F /  21.8 °C 57.9 °F /  14.4 °C 29.9in /  1012.5hPa NW 2.9mph /  4.7km/h 9mph /  14.5km/h 63% 0in /  0.0mm 519 W/m2
13:49 71.8 °F /  22.1 °C 58.5 °F /  14.7 °C 29.9in /  1012.5hPa West 8.1mph /  13km/h 13mph /  20.9km/h 63% 0in /  0.0mm 789 W/m2
13:54 72.1 °F /  22.3 °C 58.5 °F /  14.7 °C 29.9in /  1012.2hPa West 6.9mph /  11.1km/h 9mph /  14.5km/h 62% 0in /  0.0mm 1034 W/m2
13:59 72.7 °F /  22.6 °C 58.5 °F /  14.7 °C 29.9in /  1012.5hPa West 2.9mph /  4.7km/h 7mph /  11.3km/h 61% 0in /  0.0mm 1042 W/m2
14:04 73 °F /  22.8 °C 58.3 °F /  14.6 °C 29.9in /  1012.5hPa West 2.9mph /  4.7km/h 9mph /  14.5km/h 60% 0in /  0.0mm 1042 W/m2
14:09 73 °F /  22.8 °C 58.3 °F /  14.6 °C 29.9in /  1012.5hPa WNW 4mph /  6.4km/h 6mph /  9.7km/h 60% 0in /  0.0mm 415 W/m2
14:14 72.7 °F /  22.6 °C 57.9 °F /  14.4 °C 29.9in /  1012.9hPa SW 6mph /  9.7km/h 13mph /  20.9km/h 60% 0in /  0.0mm 304 W/m2
14:19 72.5 °F /  22.5 °C 56.8 °F /  13.8 °C 29.9in /  1012.9hPa NW 4mph /  6.4km/h 10mph /  16.1km/h 58% 0in /  0.0mm 371 W/m2
14:24 72.5 °F /  22.5 °C 56.8 °F /  13.8 °C 29.9in /  1012.9hPa WSW 11mph /  17.7km/h 11mph /  17.7km/h 58% 0in /  0.0mm 339 W/m2
14:29 72.9 °F /  22.7 °C 56.7 °F /  13.7 °C 29.9in /  1012.5hPa WNW 2.9mph /  4.7km/h 9mph /  14.5km/h 57% 0in /  0.0mm 397 W/m2
14:34 73 °F /  22.8 °C 56.8 °F /  13.8 °C 29.9in /  1012.5hPa WNW 8.9mph /  14.3km/h 10mph /  16.1km/h 57% 0in /  0.0mm 403 W/m2
14:39 73.2 °F /  22.9 °C 56.1 °F /  13.4 °C 29.9in /  1012.9hPa NW 8.9mph /  14.3km/h 9mph /  14.5km/h 55% 0in /  0.0mm 410 W/m2
14:44 73.6 °F /  23.1 °C 56.8 °F /  13.8 °C 29.9in /  1012.5hPa West 10.1mph /  16.3km/h 10mph /  16.1km/h 56% 0in /  0.0mm 499 W/m2
14:49 74.1 °F /  23.4 °C 55.4 °F /  13 °C 29.9in /  1012.5hPa West 2.9mph /  4.7km/h 8mph /  12.9km/h 52% 0in /  0.0mm 499 W/m2
14:54 74.5 °F /  23.6 °C 55.2 °F /  12.9 °C 29.9in /  1012.9hPa WNW 8.1mph /  13km/h 10mph /  16.1km/h 51% 0in /  0.0mm 533 W/m2
15:04 74.5 °F /  23.6 °C 55.2 °F /  12.9 °C 29.9in /  1012.9hPa WNW 6.9mph /  11.1km/h 10mph /  16.1km/h 51% 0in /  0.0mm 703 W/m2
15:09 74.7 °F /  23.7 °C 54.9 °F /  12.7 °C 29.9in /  1012.9hPa WSW 0.9mph /  1.4km/h 12mph /  19.3km/h 50% 0in /  0.0mm 566 W/m2
15:14 74.8 °F /  23.8 °C 55.6 °F /  13.1 °C 29.9in /  1012.9hPa WSW 4.9mph /  7.9km/h 10mph /  16.1km/h 51% 0in /  0.0mm 566 W/m2
15:19 74.8 °F /  23.8 °C 55 °F /  12.8 °C 29.9in /  1012.9hPa WNW 4.9mph /  7.9km/h 7mph /  11.3km/h 50% 0in /  0.0mm 566 W/m2
15:24 75 °F /  23.9 °C 54.5 °F /  12.5 °C 29.9in /  1012.9hPa WNW 4mph /  6.4km/h 9mph /  14.5km/h 49% 0in /  0.0mm 316 W/m2
15:29 74.7 °F /  23.7 °C 55.4 °F /  13 °C 29.9in /  1012.9hPa WSW 2.9mph /  4.7km/h 4mph /  6.4km/h 51% 0in /  0.0mm 352 W/m2
15:34 74.7 °F /  23.7 °C 55.4 °F /  13 °C 29.9in /  1012.9hPa WNW 4mph /  6.4km/h 10mph /  16.1km/h 51% 0in /  0.0mm 343 W/m2
15:39 74.8 °F /  23.8 °C 54.3 °F /  12.4 °C 29.9in /  1012.9hPa NW 8.1mph /  13km/h 13mph /  20.9km/h 49% 0in /  0.0mm 343 W/m2
15:44 75.4 °F /  24.1 °C 54.9 °F /  12.7 °C 29.9in /  1012.9hPa West 12.1mph /  19.5km/h 12mph /  19.3km/h 49% 0in /  0.0mm 473 W/m2
15:49 75.4 °F /  24.1 °C 54.9 °F /  12.7 °C 29.9in /  1012.9hPa West 4mph /  6.4km/h 13mph /  20.9km/h 49% 0in /  0.0mm 659 W/m2
15:54 75.7 °F /  24.3 °C 55.2 °F /  12.9 °C 29.9in /  1012.9hPa NW 8.9mph /  14.3km/h 10mph /  16.1km/h 49% 0in /  0.0mm 754 W/m2
15:59 75.9 °F /  24.4 °C 55.4 °F /  13 °C 29.9in /  1012.9hPa West 6.9mph /  11.1km/h 15mph /  24.1km/h 49% 0in /  0.0mm 754 W/m2
16:04 75.7 °F /  24.3 °C 55.2 °F /  12.9 °C 29.9in /  1012.9hPa WNW 6.9mph /  11.1km/h 10mph /  16.1km/h 49% 0in /  0.0mm 376 W/m2
16:09 75.6 °F /  24.2 °C 56.1 °F /  13.4 °C 29.9in /  1012.9hPa West 8.1mph /  13km/h 11mph /  17.7km/h 51% 0in /  0.0mm 628 W/m2
16:14 75.6 °F /  24.2 °C 55.6 °F /  13.1 °C 29.9in /  1012.9hPa WNW 6.9mph /  11.1km/h 9mph /  14.5km/h 50% 0in /  0.0mm 490 W/m2
16:19 75.7 °F /  24.3 °C 54.7 °F /  12.6 °C 29.9in /  1012.9hPa WNW 2.9mph /  4.7km/h 11mph /  17.7km/h 48% 0in /  0.0mm 782 W/m2
16:24 75.9 °F /  24.4 °C 53.6 °F /  12 °C 29.9in /  1012.9hPa WNW 2.9mph /  4.7km/h 10mph /  16.1km/h 46% 0in /  0.0mm 884 W/m2
16:29 76.5 °F /  24.7 °C 54.7 °F /  12.6 °C 29.9in /  1012.9hPa NW 8.9mph /  14.3km/h 9mph /  14.5km/h 47% 0in /  0.0mm 817 W/m2
16:34 76.6 °F /  24.8 °C 53.8 °F /  12.1 °C 29.9in /  1012.9hPa WSW 4mph /  6.4km/h 14mph /  22.5km/h 45% 0in /  0.0mm 789 W/m2
16:39 76.6 °F /  24.8 °C 54.3 °F /  12.4 °C 29.9in /  1012.9hPa NW 8.1mph /  13km/h 12mph /  19.3km/h 46% 0in /  0.0mm 686 W/m2
16:44 75.9 °F /  24.4 °C 54.3 °F /  12.4 °C 29.9in /  1012.9hPa WNW 2.9mph /  4.7km/h 7mph /  11.3km/h 47% 0in /  0.0mm 190 W/m2
16:49 75.6 °F /  24.2 °C 54.5 °F /  12.5 °C 29.9in /  1012.9hPa West 4mph /  6.4km/h 13mph /  20.9km/h 48% 0in /  0.0mm 234 W/m2
16:54 75 °F /  23.9 °C 54.5 °F /  12.5 °C 29.9in /  1012.9hPa WNW 0.9mph /  1.4km/h 8mph /  12.9km/h 49% 0in /  0.0mm 200 W/m2
16:59 75.6 °F /  24.2 °C 54.5 °F /  12.5 °C 29.9in /  1012.9hPa West 4mph /  6.4km/h 13mph /  20.9km/h 48% 0in /  0.0mm 366 W/m2
17:04 75.4 °F /  24.1 °C 54.3 °F /  12.4 °C 29.9in /  1013.2hPa WSW 4mph /  6.4km/h 7mph /  11.3km/h 48% 0in /  0.0mm 144 W/m2
17:09 75 °F /  23.9 °C 54.5 °F /  12.5 °C 29.9in /  1013.2hPa WNW 2.9mph /  4.7km/h 11mph /  17.7km/h 49% 0in /  0.0mm 795 W/m2
17:14 75.7 °F /  24.3 °C 55.2 °F /  12.9 °C 29.9in /  1013.2hPa West 6mph /  9.7km/h 8mph /  12.9km/h 49% 0in /  0.0mm 744 W/m2
17:19 76.3 °F /  24.6 °C 55.8 °F /  13.2 °C 29.9in /  1013.2hPa WNW 2mph /  3.2km/h 10mph /  16.1km/h 49% 0in /  0.0mm 693 W/m2
17:25 76.8 °F /  24.9 °C 54.5 °F /  12.5 °C 29.9in /  1013.2hPa NNW 2.9mph /  4.7km/h 11mph /  17.7km/h 46% 0in /  0.0mm 679 W/m2
17:30 77.2 °F /  25.1 °C 54.9 °F /  12.7 °C 29.9in /  1013.2hPa WNW 4mph /  6.4km/h 6mph /  9.7km/h 46% 0in /  0.0mm 520 W/m2
17:35 76.6 °F /  24.8 °C 54.9 °F /  12.7 °C 29.9in /  1013.2hPa WNW 4mph /  6.4km/h 7mph /  11.3km/h 47% 0in /  0.0mm 360 W/m2
17:40 76.6 °F /  24.8 °C 54.3 °F /  12.4 °C 29.9in /  1013.2hPa West 2.9mph /  4.7km/h 7mph /  11.3km/h 46% 0in /  0.0mm 584 W/m2
17:45 77 °F /  25 °C 54.7 °F /  12.6 °C 29.9in /  1013.2hPa NW 8.9mph /  14.3km/h 18mph /  29km/h 46% 0in /  0.0mm 592 W/m2
17:50 77 °F /  25 °C 53.4 °F /  11.9 °C 29.9in /  1013.2hPa WNW 4.9mph /  7.9km/h 12mph /  19.3km/h 44% 0in /  0.0mm 584 W/m2
17:55 77 °F /  25 °C 54.7 °F /  12.6 °C 29.9in /  1013.5hPa WSW 6.9mph /  11.1km/h 10mph /  16.1km/h 46% 0in /  0.0mm 533 W/m2
18:00 77.2 °F /  25.1 °C 53.6 °F /  12 °C 29.9in /  1013.2hPa NNW 6mph /  9.7km/h 12mph /  19.3km/h 44% 0in /  0.0mm 445 W/m2
18:05 77.4 °F /  25.2 °C 54.3 °F /  12.4 °C 29.9in /  1013.5hPa SW 6.9mph /  11.1km/h 13mph /  20.9km/h 45% 0in /  0.0mm 513 W/m2
18:10 76.8 °F /  24.9 °C 53.8 °F /  12.1 °C 29.9in /  1013.5hPa West 6.9mph /  11.1km/h 10mph /  16.1km/h 45% 0in /  0.0mm 141 W/m2
18:15 76.3 °F /  24.6 °C 54 °F /  12.2 °C 29.9in /  1013.5hPa WSW 2mph /  3.2km/h 13mph /  20.9km/h 46% 0in /  0.0mm 483 W/m2
18:20 76.1 °F /  24.5 °C 54.3 °F /  12.4 °C 29.9in /  1013.2hPa West 2mph /  3.2km/h 8mph /  12.9km/h 47% 0in /  0.0mm 218 W/m2
18:25 76.3 °F /  24.6 °C 54 °F /  12.2 °C 29.9in /  1013.2hPa West 6mph /  9.7km/h 10mph /  16.1km/h 46% 0in /  0.0mm 487 W/m2
18:30 76.5 °F /  24.7 °C 54.1 °F /  12.3 °C 29.9in /  1013.2hPa WNW 0.9mph /  1.4km/h 7mph /  11.3km/h 46% 0in /  0.0mm 464 W/m2
18:35 76.3 °F /  24.6 °C 54 °F /  12.2 °C 29.9in /  1013.2hPa SSW 2.9mph /  4.7km/h 12mph /  19.3km/h 46% 0in /  0.0mm 79 W/m2
18:41 75.6 °F /  24.2 °C 54 °F /  12.2 °C 29.9in /  1013.5hPa NW 6.9mph /  11.1km/h 10mph /  16.1km/h 47% 0in /  0.0mm 70 W/m2
18:46 74.8 °F /  23.8 °C 54.3 °F /  12.4 °C 29.9in /  1013.5hPa NW 2.9mph /  4.7km/h 11mph /  17.7km/h 49% 0in /  0.0mm 111 W/m2
18:51 74.7 °F /  23.7 °C 54.3 °F /  12.4 °C 29.9in /  1013.5hPa West 0.9mph /  1.4km/h 2mph /  3.2km/h 49% 0in /  0.0mm 76 W/m2
18:56 74.5 °F /  23.6 °C 54.7 °F /  12.6 °C 29.9in /  1013.5hPa WSW 2mph /  3.2km/h 6mph /  9.7km/h 50% 0in /  0.0mm 339 W/m2
19:01 74.8 °F /  23.8 °C 54.3 °F /  12.4 °C 29.9in /  1013.5hPa West 4mph /  6.4km/h 8mph /  12.9km/h 49% 0in /  0.0mm 105 W/m2
19:06 74.8 °F /  23.8 °C 54.3 °F /  12.4 °C 29.9in /  1013.2hPa West 2.9mph /  4.7km/h 5mph /  8km/h 49% 0in /  0.0mm 163 W/m2
19:11 74.8 °F /  23.8 °C 54.3 °F /  12.4 °C 29.9in /  1013.5hPa West 0.9mph /  1.4km/h 5mph /  8km/h 49% 0in /  0.0mm 58 W/m2
19:16 74.7 °F /  23.7 °C 54.3 °F /  12.4 °C 29.9in /  1013.2hPa WNW 4.9mph /  7.9km/h 5mph /  8km/h 49% 0in /  0.0mm 60 W/m2
19:21 74.3 °F /  23.5 °C 54.5 °F /  12.5 °C 29.9in /  1013.5hPa WNW 2mph /  3.2km/h 6mph /  9.7km/h 50% 0in /  0.0mm 62 W/m2
19:26 74.5 °F /  23.6 °C 54.7 °F /  12.6 °C 29.9in /  1013.5hPa West 4mph /  6.4km/h 4mph /  6.4km/h 50% 0in /  0.0mm 232 W/m2
19:31 74.8 °F /  23.8 °C 54.3 °F /  12.4 °C 29.9in /  1013.5hPa West 2mph /  3.2km/h 6mph /  9.7km/h 49% 0in /  0.0mm 292 W/m2
19:36 75.6 °F /  24.2 °C 55 °F /  12.8 °C 29.9in /  1013.5hPa WSW 4.9mph /  7.9km/h 5mph /  8km/h 49% 0in /  0.0mm 248 W/m2
19:41 75.9 °F /  24.4 °C 54.9 °F /  12.7 °C 29.9in /  1013.5hPa NW 0.9mph /  1.4km/h 3mph /  4.8km/h 48% 0in /  0.0mm 220 W/m2
19:46 75.9 °F /  24.4 °C 54.3 °F /  12.4 °C 29.9in /  1013.5hPa NW 0.9mph /  1.4km/h 7mph /  11.3km/h 47% 0in /  0.0mm 69 W/m2
19:51 75.9 °F /  24.4 °C 55.4 °F /  13 °C 29.9in /  1013.5hPa WNW 2mph /  3.2km/h 3mph /  4.8km/h 49% 0in /  0.0mm 192 W/m2
19:56 75.9 °F /  24.4 °C 54.3 °F /  12.4 °C 29.9in /  1013.5hPa WNW 4mph /  6.4km/h 6mph /  9.7km/h 47% 0in /  0.0mm 169 W/m2
20:01 75.7 °F /  24.3 °C 54.7 °F /  12.6 °C 29.9in /  1013.9hPa West 4mph /  6.4km/h 6mph /  9.7km/h 48% 0in /  0.0mm 137 W/m2
20:06 75.6 °F /  24.2 °C 54.5 °F /  12.5 °C 29.9in /  1013.9hPa WSW 2.9mph /  4.7km/h 5mph /  8km/h 48% 0in /  0.0mm 69 W/m2
20:11 75.2 °F /  24 °C 54.7 °F /  12.6 °C 29.9in /  1013.5hPa WNW 2.9mph /  4.7km/h 8mph /  12.9km/h 49% 0in /  0.0mm 104 W/m2
20:16 75 °F /  23.9 °C 55 °F /  12.8 °C 29.9in /  1013.9hPa West 2mph /  3.2km/h 2mph /  3.2km/h 50% 0in /  0.0mm 95 W/m2
20:21 74.8 °F /  23.8 °C 55 °F /  12.8 °C 29.9in /  1013.9hPa West 2.9mph /  4.7km/h 8mph /  12.9km/h 50% 0in /  0.0mm 83 W/m2
20:26 74.5 °F /  23.6 °C 55.2 °F /  12.9 °C 29.9in /  1013.9hPa West 0.9mph /  1.4km/h 2mph /  3.2km/h 51% 0in /  0.0mm 49 W/m2
20:31 73.9 °F /  23.3 °C 54.7 °F /  12.6 °C 30in /  1014.2hPa West 0.9mph /  1.4km/h 3mph /  4.8km/h 51% 0in /  0.0mm 23 W/m2
20:36 73.6 °F /  23.1 °C 54.9 °F /  12.7 °C 30in /  1014.2hPa Calm   3mph /  4.8km/h 52% 0in /  0.0mm 30 W/m2
20:41 73 °F /  22.8 °C 55.4 °F /  13 °C 30in /  1014.2hPa Calm     54% 0in /  0.0mm 21 W/m2
20:46 72.9 °F /  22.7 °C 56.7 °F /  13.7 °C 30in /  1014.2hPa West 0.9mph /  1.4km/h 3mph /  4.8km/h 57% 0in /  0.0mm 19 W/m2
20:51 72.3 °F /  22.4 °C 56.3 °F /  13.5 °C 30in /  1014.2hPa West 0.9mph /  1.4km/h 1mph /  1.6km/h 57% 0in /  0.0mm 21 W/m2
20:56 71.8 °F /  22.1 °C 55.8 °F /  13.2 °C 30in /  1014.2hPa West 2mph /  3.2km/h 2mph /  3.2km/h 57% 0in /  0.0mm 19 W/m2
21:01 71.2 °F /  21.8 °C 56.1 °F /  13.4 °C 30in /  1014.2hPa Calm   1mph /  1.6km/h 59% 0in /  0.0mm 16 W/m2
21:06 70.7 °F /  21.5 °C 55.2 °F /  12.9 °C 30in /  1014.2hPa West 2mph /  3.2km/h 2mph /  3.2km/h 58% 0in /  0.0mm 12 W/m2
21:12 70.3 °F /  21.3 °C 54.9 °F /  12.7 °C 30in /  1014.6hPa Calm   3mph /  4.8km/h 58% 0in /  0.0mm 9 W/m2
21:17 70.2 °F /  21.2 °C 55.2 °F /  12.9 °C 30in /  1014.6hPa WSW 0.9mph /  1.4km/h 3mph /  4.8km/h 59% 0in /  0.0mm 7 W/m2
21:22 69.8 °F /  21 °C 54.9 °F /  12.7 °C 30in /  1014.6hPa West 0.9mph /  1.4km/h 2mph /  3.2km/h 59% 0in /  0.0mm 0 W/m2
21:27 69.6 °F /  20.9 °C 54.1 °F /  12.3 °C 30in /  1014.6hPa West 2mph /  3.2km/h 2mph /  3.2km/h 58% 0in /  0.0mm 0 W/m2
21:32 69.4 °F /  20.8 °C 54.5 °F /  12.5 °C 30in /  1014.6hPa Calm   4mph /  6.4km/h 59% 0in /  0.0mm 0 W/m2
21:37 69.4 °F /  20.8 °C 55.4 °F /  13 °C 30in /  1014.6hPa Calm     61% 0in /  0.0mm 0 W/m2
21:42 69.1 °F /  20.6 °C 55 °F /  12.8 °C 30in /  1014.6hPa Calm     61% 0in /  0.0mm 0 W/m2
21:47 68.5 °F /  20.3 °C 55 °F /  12.8 °C 30in /  1014.9hPa Calm   1mph /  1.6km/h 62% 0in /  0.0mm 0 W/m2
21:52 68.2 °F /  20.1 °C 55 °F /  12.8 °C 30in /  1014.9hPa Calm     63% 0in /  0.0mm 0 W/m2
21:57 67.6 °F /  19.8 °C 55 °F /  12.8 °C 30in /  1014.9hPa West 0.9mph /  1.4km/h 1mph /  1.6km/h 64% 0in /  0.0mm 0 W/m2
22:02 67.3 °F /  19.6 °C 55 °F /  12.8 °C 30in /  1014.9hPa Calm     65% 0in /  0.0mm 0 W/m2
22:07 66.9 °F /  19.4 °C 55.2 °F /  12.9 °C 30in /  1014.9hPa Calm     66% 0in /  0.0mm 0 W/m2
22:12 66.6 °F /  19.2 °C 54.9 °F /  12.7 °C 30in /  1015.2hPa Calm     66% 0in /  0.0mm 0 W/m2
22:17 66.4 °F /  19.1 °C 55 °F /  12.8 °C 30in /  1015.2hPa Calm     67% 0in /  0.0mm 0 W/m2
22:22 66 °F /  18.9 °C 54.7 °F /  12.6 °C 30in /  1015.2hPa Calm     67% 0in /  0.0mm 0 W/m2
22:27 65.7 °F /  18.7 °C 54.9 °F /  12.7 °C 30in /  1014.9hPa Calm     68% 0in /  0.0mm 0 W/m2
22:32 65.3 °F /  18.5 °C 54.5 °F /  12.5 °C 30in /  1015.2hPa Calm     68% 0in /  0.0mm 0 W/m2
22:37 64.9 °F /  18.3 °C 54.1 °F /  12.3 °C 30in /  1015.2hPa Calm     68% 0in /  0.0mm 0 W/m2
22:42 64.8 °F /  18.2 °C 54.3 °F /  12.4 °C 30in /  1015.2hPa Calm     69% 0in /  0.0mm 0 W/m2
22:47 64.4 °F /  18 °C 54.3 °F /  12.4 °C 30in /  1015.2hPa Calm     70% 0in /  0.0mm 0 W/m2
22:52 64 °F /  17.8 °C 54.1 °F /  12.3 °C 30in /  1015.2hPa Calm     70% 0in /  0.0mm 0 W/m2
22:57 63.9 °F /  17.7 °C 54.3 °F /  12.4 °C 30in /  1015.2hPa Calm     71% 0in /  0.0mm 0 W/m2
23:03 63.7 °F /  17.6 °C 54.1 °F /  12.3 °C 30in /  1015.2hPa Calm     71% 0in /  0.0mm 0 W/m2
23:08 63.5 °F /  17.5 °C 54.3 °F /  12.4 °C 30in /  1015.2hPa Calm     72% 0in /  0.0mm 0 W/m2
23:13 63.3 °F /  17.4 °C 54.1 °F /  12.3 °C 30in /  1015.6hPa Calm   1mph /  1.6km/h 72% 0in /  0.0mm 0 W/m2
23:18 63.3 °F /  17.4 °C 54.5 °F /  12.5 °C 30in /  1015.6hPa Calm     73% 0in /  0.0mm 0 W/m2
23:23 63.1 °F /  17.3 °C 54.3 °F /  12.4 °C 30in /  1015.6hPa Calm     73% 0in /  0.0mm 0 W/m2
23:28 63 °F /  17.2 °C 54.1 °F /  12.3 °C 30in /  1015.6hPa Calm     73% 0in /  0.0mm 0 W/m2
23:33 62.8 °F /  17.1 °C 54 °F /  12.2 °C 30in /  1015.6hPa Calm     73% 0in /  0.0mm 0 W/m2
23:38 62.4 °F /  16.9 °C 54 °F /  12.2 °C 30in /  1015.6hPa Calm     74% 0in /  0.0mm 0 W/m2
23:43 62.2 °F /  16.8 °C 53.8 °F /  12.1 °C 30in /  1015.6hPa Calm     74% 0in /  0.0mm 0 W/m2
23:48 62.2 °F /  16.8 °C 53.8 °F /  12.1 °C 30in /  1015.6hPa Calm     74% 0in /  0.0mm 0 W/m2
23:53 62.1 °F /  16.7 °C 53.6 °F /  12 °C 30in /  1015.6hPa Calm     74% 0in /  0.0mm 0 W/m2
23:58 61.9 °F /  16.6 °C 53.8 °F /  12.1 °C 30in /  1015.6hPa Calm     75% 0in /  0.0mm 0 W/m2
Juneau County Weather
Compliments of Weather Underground - 4 mb